createdAt,value
2018-05-11T00:00:50.174Z,10.73
2018-05-11T00:01:50.118Z,10.73
2018-05-11T00:02:50.104Z,10.67
2018-05-11T00:03:50.079Z,10.64
2018-05-11T00:04:50.064Z,10.72
2018-05-11T00:05:50.042Z,10.58
2018-05-11T00:06:50.034Z,10.58
2018-05-11T00:07:50.003Z,10.57
2018-05-11T00:08:49.981Z,10.55
2018-05-11T00:09:49.973Z,10.45
2018-05-11T00:10:49.950Z,10.57
2018-05-11T00:11:49.928Z,10.52
2018-05-11T00:12:49.904Z,10.52
2018-05-11T00:13:49.885Z,10.52
2018-05-11T00:14:49.875Z,10.52
2018-05-11T00:15:49.845Z,10.57
2018-05-11T00:16:49.839Z,10.57
2018-05-11T00:17:49.808Z,10.62
2018-05-11T00:18:49.789Z,10.60
2018-05-11T00:19:49.772Z,10.52
2018-05-11T00:20:49.756Z,10.48
2018-05-11T00:21:49.731Z,10.61
2018-05-11T00:22:49.707Z,10.61
2018-05-11T00:23:49.694Z,10.43
2018-05-11T00:24:49.676Z,10.49
2018-05-11T00:25:49.661Z,10.46
2018-05-11T00:26:49.639Z,10.49
2018-05-11T00:27:49.621Z,10.43
2018-05-11T00:28:49.597Z,10.41
2018-05-11T00:29:49.573Z,10.46
2018-05-11T00:30:49.557Z,10.43
2018-05-11T00:31:49.539Z,10.45
2018-05-11T00:32:49.520Z,10.49
2018-05-11T00:33:49.493Z,10.36
2018-05-11T00:34:49.480Z,10.38
2018-05-11T00:35:49.457Z,10.36
2018-05-11T00:36:49.446Z,10.38
2018-05-11T00:37:49.423Z,10.28
2018-05-11T00:38:49.401Z,10.35
2018-05-11T00:39:49.387Z,10.28
2018-05-11T00:40:49.406Z,10.31
2018-05-11T00:41:49.343Z,10.36
2018-05-11T00:42:49.326Z,10.35
2018-05-11T00:43:49.309Z,10.27
2018-05-11T00:44:49.282Z,10.24
2018-05-11T00:45:49.265Z,10.16
2018-05-11T00:46:49.256Z,10.31
2018-05-11T00:47:49.247Z,10.21
2018-05-11T00:48:49.209Z,10.20
2018-05-11T00:49:49.184Z,10.17
2018-05-11T00:50:49.190Z,10.21
2018-05-11T00:51:49.160Z,10.23
2018-05-11T00:52:49.131Z,10.21
2018-05-11T00:53:49.112Z,10.17
2018-05-11T00:54:49.089Z,10.09
2018-05-11T00:55:49.063Z,10.05
2018-05-11T00:56:49.050Z,10.03
2018-05-11T00:57:49.025Z,10.12
2018-05-11T00:58:49.008Z,10.06
2018-05-11T00:59:49.004Z,10.05
2018-05-11T01:00:48.968Z,10.10
2018-05-11T01:01:48.961Z,10.09
2018-05-11T01:02:48.927Z,10.03
2018-05-11T01:03:48.923Z,10.06
2018-05-11T01:04:48.890Z,10.05
2018-05-11T01:05:48.868Z,10.03
2018-05-11T01:06:48.852Z,9.96
2018-05-11T01:07:48.833Z,9.98
2018-05-11T01:08:48.809Z,10.01
2018-05-11T01:09:48.787Z,10.02
2018-05-11T01:10:48.774Z,10.01
2018-05-11T01:11:48.781Z,9.96
2018-05-11T01:12:48.736Z,9.85
2018-05-11T01:13:48.713Z,10.02
2018-05-11T01:14:48.692Z,9.88
2018-05-11T01:15:48.677Z,9.91
2018-05-11T01:16:48.725Z,9.81
2018-05-11T01:17:48.636Z,9.85
2018-05-11T01:18:48.633Z,9.96
2018-05-11T01:19:48.593Z,9.85
2018-05-11T01:20:48.577Z,9.85
2018-05-11T01:21:48.559Z,9.91
2018-05-11T01:22:48.533Z,9.85
2018-05-11T01:23:48.509Z,9.85
2018-05-11T01:24:48.487Z,9.87
2018-05-11T01:25:48.494Z,9.85
2018-05-11T01:26:48.456Z,9.81
2018-05-11T01:27:48.432Z,9.85
2018-05-11T01:28:48.413Z,9.84
2018-05-11T01:29:48.421Z,9.78
2018-05-11T01:30:48.384Z,9.72
2018-05-11T01:31:48.364Z,9.80
2018-05-11T01:32:48.351Z,9.78
2018-05-11T01:33:48.314Z,9.70
2018-05-11T01:34:48.321Z,9.69
2018-05-11T01:35:48.272Z,9.77
2018-05-11T01:36:48.274Z,9.70
2018-05-11T01:37:48.231Z,9.66
2018-05-11T01:38:48.241Z,9.66
2018-05-11T01:39:48.201Z,9.60
2018-05-11T01:40:48.214Z,9.65
2018-05-11T01:41:48.171Z,9.63
2018-05-11T01:42:48.136Z,9.62
2018-05-11T01:43:48.116Z,9.62
2018-05-11T01:44:48.096Z,9.55
2018-05-11T01:45:48.109Z,9.60
2018-05-11T01:46:48.050Z,9.54
2018-05-11T01:47:48.043Z,9.52
2018-05-11T01:48:48.088Z,9.52
2018-05-11T01:49:47.998Z,9.45
2018-05-11T01:50:47.972Z,9.41
2018-05-11T01:51:47.962Z,9.47
2018-05-11T01:52:47.932Z,9.44
2018-05-11T01:53:47.926Z,9.41
2018-05-11T01:54:47.888Z,9.45
2018-05-11T01:55:47.890Z,9.41
2018-05-11T01:56:47.858Z,9.36
2018-05-11T01:57:47.843Z,9.34
2018-05-11T01:58:47.808Z,9.40
2018-05-11T01:59:47.810Z,9.42
2018-05-11T02:00:47.772Z,9.44
2018-05-11T02:01:47.754Z,9.33
2018-05-11T02:02:47.734Z,9.33
2018-05-11T02:03:47.715Z,9.36
2018-05-11T02:04:47.704Z,9.34
2018-05-11T02:05:47.684Z,9.33
2018-05-11T02:06:47.651Z,9.34
2018-05-11T02:07:47.637Z,9.37
2018-05-11T02:08:47.620Z,9.27
2018-05-11T02:09:47.590Z,9.37
2018-05-11T02:10:47.578Z,9.23
2018-05-11T02:11:47.553Z,9.24
2018-05-11T02:12:47.543Z,9.26
2018-05-11T02:13:47.509Z,9.33
2018-05-11T02:14:47.492Z,9.23
2018-05-11T02:15:47.470Z,9.26
2018-05-11T02:16:47.469Z,9.30
2018-05-11T02:17:47.432Z,9.29
2018-05-11T02:18:47.431Z,9.23
2018-05-11T02:19:47.389Z,9.22
2018-05-11T02:20:47.405Z,9.18
2018-05-11T02:21:47.355Z,9.14
2018-05-11T02:22:47.331Z,9.12
2018-05-11T02:23:47.316Z,9.03
2018-05-11T02:24:47.312Z,9.11
2018-05-11T02:25:47.277Z,8.98
2018-05-11T02:26:47.270Z,8.95
2018-05-11T02:27:47.237Z,8.88
2018-05-11T02:28:47.208Z,8.99
2018-05-11T02:29:47.188Z,8.96
2018-05-11T02:30:47.170Z,8.89
2018-05-11T02:31:47.157Z,8.95
2018-05-11T02:32:47.127Z,8.89
2018-05-11T02:33:47.114Z,8.96
2018-05-11T02:34:47.086Z,8.96
2018-05-11T02:35:47.068Z,8.89
2018-05-11T02:36:47.068Z,8.89
2018-05-11T02:37:47.036Z,8.90
2018-05-11T02:38:47.005Z,8.78
2018-05-11T02:39:46.988Z,8.83
2018-05-11T02:40:46.969Z,8.74
2018-05-11T02:41:46.943Z,8.75
2018-05-11T02:42:46.937Z,8.83
2018-05-11T02:43:46.903Z,8.77
2018-05-11T02:44:46.884Z,8.75
2018-05-11T02:45:46.878Z,8.75
2018-05-11T02:46:46.875Z,8.77
2018-05-11T02:47:46.821Z,8.75
2018-05-11T02:48:46.799Z,8.74
2018-05-11T02:49:46.791Z,8.74
2018-05-11T02:50:46.862Z,8.71
2018-05-11T02:51:46.741Z,8.71
2018-05-11T02:52:46.725Z,8.74
2018-05-11T02:53:46.718Z,8.72
2018-05-11T02:54:46.680Z,8.78
2018-05-11T02:55:46.665Z,8.80
2018-05-11T02:56:46.643Z,8.77
2018-05-11T02:57:46.619Z,8.72
2018-05-11T02:58:46.596Z,8.75
2018-05-11T02:59:46.579Z,8.77
2018-05-11T03:00:46.560Z,8.70
2018-05-11T03:01:46.535Z,8.71
2018-05-11T03:02:46.533Z,8.65
2018-05-11T03:03:46.498Z,8.60
2018-05-11T03:04:46.479Z,8.65
2018-05-11T03:05:46.459Z,8.62
2018-05-11T03:06:46.440Z,8.62
2018-05-11T03:07:46.427Z,8.65
2018-05-11T03:08:46.395Z,8.65
2018-05-11T03:09:46.373Z,8.63
2018-05-11T03:10:46.350Z,8.65
2018-05-11T03:11:46.348Z,8.63
2018-05-11T03:12:46.324Z,8.67
2018-05-11T03:13:46.315Z,8.56
2018-05-11T03:14:46.322Z,8.60
2018-05-11T03:15:46.328Z,8.55
2018-05-11T03:16:46.260Z,8.63
2018-05-11T03:17:46.235Z,8.60
2018-05-11T03:18:46.261Z,8.53
2018-05-11T03:19:46.179Z,8.56
2018-05-11T03:20:46.155Z,8.56
2018-05-11T03:21:46.134Z,8.55
2018-05-11T03:22:46.109Z,8.52
2018-05-11T03:23:46.099Z,8.47
2018-05-11T03:24:46.065Z,8.53
2018-05-11T03:25:46.045Z,8.47
2018-05-11T03:26:46.037Z,8.46
2018-05-11T03:27:46.039Z,8.47
2018-05-11T03:28:45.998Z,8.46
2018-05-11T03:29:45.970Z,8.47
2018-05-11T03:30:45.947Z,8.44
2018-05-11T03:31:45.924Z,8.49
2018-05-11T03:32:45.898Z,8.53
2018-05-11T03:33:45.881Z,8.41
2018-05-11T03:34:45.856Z,8.50
2018-05-11T03:35:45.857Z,8.49
2018-05-11T03:36:45.820Z,8.46
2018-05-11T03:37:45.797Z,8.53
2018-05-11T03:38:45.783Z,8.44
2018-05-11T03:39:45.799Z,8.50
2018-05-11T03:40:45.753Z,8.41
2018-05-11T03:41:45.743Z,8.47
2018-05-11T03:42:45.696Z,8.47
2018-05-11T03:43:45.679Z,8.46
2018-05-11T03:44:45.655Z,8.47
2018-05-11T03:45:45.646Z,8.49
2018-05-11T03:46:45.622Z,8.42
2018-05-11T03:47:45.635Z,8.47
2018-05-11T03:48:45.578Z,8.44
2018-05-11T03:49:45.556Z,8.44
2018-05-11T03:50:45.550Z,8.47
2018-05-11T03:51:45.513Z,8.52
2018-05-11T03:52:45.487Z,8.44
2018-05-11T03:53:45.471Z,8.46
2018-05-11T03:54:45.448Z,8.47
2018-05-11T03:55:45.429Z,8.42
2018-05-11T03:56:45.413Z,8.46
2018-05-11T03:57:45.381Z,8.44
2018-05-11T03:58:45.419Z,8.46
2018-05-11T03:59:45.337Z,8.39
2018-05-11T04:00:45.327Z,8.44
2018-05-11T04:01:45.303Z,8.50
2018-05-11T04:02:45.278Z,8.49
2018-05-11T04:03:45.266Z,8.55
2018-05-11T04:04:45.260Z,8.44
2018-05-11T04:05:45.227Z,8.49
2018-05-11T04:06:45.200Z,8.50
2018-05-11T04:07:45.177Z,8.41
2018-05-11T04:08:45.155Z,8.44
2018-05-11T04:09:45.139Z,8.44
2018-05-11T04:10:45.159Z,8.44
2018-05-11T04:11:45.098Z,8.47
2018-05-11T04:12:45.069Z,8.44
2018-05-11T04:13:45.064Z,8.39
2018-05-11T04:14:45.042Z,8.41
2018-05-11T04:15:45.107Z,8.41
2018-05-11T04:16:45.005Z,8.49
2018-05-11T04:17:45.008Z,8.39
2018-05-11T04:18:44.968Z,8.46
2018-05-11T04:19:44.949Z,8.44
2018-05-11T04:20:44.977Z,8.46
2018-05-11T04:21:44.890Z,8.42
2018-05-11T04:22:44.900Z,8.57
2018-05-11T04:23:44.865Z,8.53
2018-05-11T04:24:44.839Z,8.39
2018-05-11T04:25:44.831Z,8.47
2018-05-11T04:26:44.795Z,8.53
2018-05-11T04:27:44.782Z,8.44
2018-05-11T04:28:44.756Z,8.47
2018-05-11T04:29:44.747Z,8.49
2018-05-11T04:30:44.706Z,8.57
2018-05-11T04:31:44.697Z,8.59
2018-05-11T04:32:44.682Z,8.56
2018-05-11T04:33:44.651Z,8.65
2018-05-11T04:34:44.619Z,8.62
2018-05-11T04:35:44.638Z,8.62
2018-05-11T04:36:44.578Z,8.67
2018-05-11T04:37:44.561Z,8.77
2018-05-11T04:38:44.535Z,8.75
2018-05-11T04:39:44.556Z,8.78
2018-05-11T04:40:44.505Z,8.80
2018-05-11T04:41:44.474Z,8.78
2018-05-11T04:42:44.560Z,8.77
2018-05-11T04:43:44.433Z,8.86
2018-05-11T04:44:44.417Z,8.90
2018-05-11T04:45:44.421Z,8.93
2018-05-11T04:46:44.371Z,8.89
2018-05-11T04:47:44.357Z,8.98
2018-05-11T04:48:44.363Z,8.95
2018-05-11T04:49:44.340Z,8.89
2018-05-11T04:50:44.304Z,8.93
2018-05-11T04:51:44.287Z,9.01
2018-05-11T04:52:44.317Z,9.08
2018-05-11T04:53:44.355Z,9.06
2018-05-11T04:54:44.231Z,9.11
2018-05-11T04:55:44.207Z,9.14
2018-05-11T04:56:44.180Z,9.22
2018-05-11T04:57:44.151Z,9.12
2018-05-11T04:58:44.123Z,9.22
2018-05-11T04:59:44.106Z,9.18
2018-05-11T05:00:44.099Z,9.26
2018-05-11T05:01:44.111Z,9.23
2018-05-11T05:02:44.059Z,9.27
2018-05-11T05:03:44.033Z,9.32
2018-05-11T05:04:44.007Z,9.36
2018-05-11T05:05:43.985Z,9.34
2018-05-11T05:06:43.985Z,9.48
2018-05-11T05:07:44.003Z,9.45
2018-05-11T05:08:43.924Z,9.54
2018-05-11T05:09:43.956Z,9.55
2018-05-11T05:10:43.955Z,9.63
2018-05-11T05:11:43.918Z,9.60
2018-05-11T05:12:43.895Z,9.72
2018-05-11T05:13:43.844Z,9.69
2018-05-11T05:14:43.815Z,9.63
2018-05-11T05:15:43.792Z,9.78
2018-05-11T05:16:43.795Z,9.73
2018-05-11T05:17:43.763Z,9.81
2018-05-11T05:18:43.745Z,9.91
2018-05-11T05:19:43.710Z,9.88
2018-05-11T05:20:43.683Z,9.93
2018-05-11T05:21:43.703Z,10.02
2018-05-11T05:22:43.654Z,9.96
2018-05-11T05:23:43.651Z,10.09
2018-05-11T05:24:43.666Z,10.08
2018-05-11T05:25:43.633Z,10.10
2018-05-11T05:26:43.596Z,10.18
2018-05-11T05:27:43.574Z,10.14
2018-05-11T05:28:43.525Z,10.23
2018-05-11T05:29:43.508Z,10.27
2018-05-11T05:30:43.495Z,10.34
2018-05-11T05:31:43.524Z,10.34
2018-05-11T05:32:43.465Z,10.28
2018-05-11T05:33:43.454Z,10.28
2018-05-11T05:34:43.453Z,10.38
2018-05-11T05:35:43.431Z,10.42
2018-05-11T05:36:43.419Z,10.46
2018-05-11T05:37:43.351Z,10.41
2018-05-11T05:38:43.329Z,10.57
2018-05-11T05:39:43.317Z,10.64
2018-05-11T05:40:43.297Z,10.58
2018-05-11T05:41:43.296Z,10.73
2018-05-11T05:42:43.263Z,10.78
2018-05-11T05:43:43.248Z,10.90
2018-05-11T05:44:43.218Z,11.04
2018-05-11T05:45:43.206Z,11.15
2018-05-11T05:46:43.184Z,11.25
2018-05-11T05:47:43.170Z,11.30
2018-05-11T05:48:43.145Z,11.37
2018-05-11T05:49:43.141Z,11.38
2018-05-11T05:50:43.110Z,11.55
2018-05-11T05:51:43.088Z,11.62
2018-05-11T05:52:43.088Z,11.74
2018-05-11T05:53:43.058Z,11.84
2018-05-11T05:54:43.027Z,11.95
2018-05-11T05:55:43.034Z,12.10
2018-05-11T05:56:43.022Z,12.13
2018-05-11T05:57:42.976Z,12.15
2018-05-11T05:58:42.958Z,12.14
2018-05-11T05:59:42.983Z,12.17
2018-05-11T06:00:42.959Z,12.18
2018-05-11T06:01:42.914Z,12.14
2018-05-11T06:02:42.901Z,12.11
2018-05-11T06:03:42.873Z,12.08
2018-05-11T06:04:42.875Z,12.08
2018-05-11T06:05:42.848Z,12.13
2018-05-11T06:06:42.871Z,12.08
2018-05-11T06:07:42.809Z,12.17
2018-05-11T06:08:42.795Z,12.18
2018-05-11T06:09:42.777Z,12.13
2018-05-11T06:10:42.792Z,12.11
2018-05-11T06:11:42.819Z,12.11
2018-05-11T06:12:42.741Z,12.18
2018-05-11T06:13:42.709Z,12.14
2018-05-11T06:14:42.721Z,12.08
2018-05-11T06:15:42.702Z,12.21
2018-05-11T06:16:42.681Z,12.25
2018-05-11T06:17:42.664Z,12.29
2018-05-11T06:18:42.625Z,12.35
2018-05-11T06:19:42.614Z,12.35
2018-05-11T06:20:42.584Z,12.35
2018-05-11T06:21:42.583Z,12.40
2018-05-11T06:22:42.550Z,12.47
2018-05-11T06:23:42.544Z,12.53
2018-05-11T06:24:42.532Z,12.50
2018-05-11T06:25:42.529Z,12.50
2018-05-11T06:26:42.509Z,12.51
2018-05-11T06:27:42.473Z,12.47
2018-05-11T06:28:42.500Z,12.62
2018-05-11T06:29:42.443Z,12.69
2018-05-11T06:30:42.420Z,12.66
2018-05-11T06:31:42.427Z,12.80
2018-05-11T06:32:42.405Z,12.84
2018-05-11T06:33:42.371Z,12.93
2018-05-11T06:34:42.351Z,13.02
2018-05-11T06:35:42.347Z,13.08
2018-05-11T06:36:42.320Z,13.11
2018-05-11T06:37:42.310Z,13.24
2018-05-11T06:38:42.281Z,13.36
2018-05-11T06:39:42.277Z,13.29
2018-05-11T06:40:42.263Z,13.36
2018-05-11T06:41:42.254Z,13.47
2018-05-11T06:42:42.243Z,13.61
2018-05-11T06:43:42.207Z,13.61
2018-05-11T06:44:42.198Z,13.72
2018-05-11T06:45:42.178Z,13.91
2018-05-11T06:46:42.164Z,13.97
2018-05-11T06:47:42.165Z,14.12
2018-05-11T06:48:42.153Z,14.13
2018-05-11T06:49:42.168Z,14.31
2018-05-11T06:50:42.130Z,14.33
2018-05-11T06:51:42.139Z,14.23
2018-05-11T06:52:42.107Z,14.28
2018-05-11T06:53:42.115Z,14.13
2018-05-11T06:54:42.076Z,14.15
2018-05-11T06:55:42.052Z,14.19
2018-05-11T06:56:42.018Z,14.28
2018-05-11T06:57:42.017Z,14.21
2018-05-11T06:58:42.019Z,14.27
2018-05-11T06:59:41.983Z,14.30
2018-05-11T07:00:41.981Z,14.31
2018-05-11T07:01:41.987Z,14.37
2018-05-11T07:02:41.966Z,14.31
2018-05-11T07:03:41.946Z,14.21
2018-05-11T07:04:41.928Z,14.26
2018-05-11T07:05:41.903Z,14.34
2018-05-11T07:06:41.894Z,14.33
2018-05-11T07:07:41.905Z,14.61
2018-05-11T07:08:41.877Z,14.56
2018-05-11T07:09:41.859Z,14.61
2018-05-11T07:10:41.841Z,14.61
2018-05-11T07:11:41.851Z,14.70
2018-05-11T07:12:41.848Z,14.67
2018-05-11T07:13:41.814Z,14.56
2018-05-11T07:14:41.792Z,14.38
2018-05-11T07:15:41.843Z,14.09
2018-05-11T07:16:41.779Z,14.03
2018-05-11T07:17:41.787Z,13.98
2018-05-11T07:18:41.809Z,14.15
2018-05-11T07:19:41.750Z,14.18
2018-05-11T07:20:41.747Z,14.23
2018-05-11T07:21:41.722Z,14.34
2018-05-11T07:22:41.687Z,14.38
2018-05-11T07:23:41.694Z,14.22
2018-05-11T07:24:41.667Z,14.27
2018-05-11T07:25:41.718Z,14.38
2018-05-11T07:26:41.619Z,14.49
2018-05-11T07:27:41.603Z,14.64
2018-05-11T07:28:41.604Z,14.70
2018-05-11T07:29:41.602Z,14.86
2018-05-11T07:30:41.576Z,14.86
2018-05-11T07:31:41.557Z,14.96
2018-05-11T07:32:41.543Z,15.05
2018-05-11T07:33:41.550Z,15.07
2018-05-11T07:34:41.500Z,15.22
2018-05-11T07:35:41.489Z,15.20
2018-05-11T07:36:41.475Z,15.15
2018-05-11T07:37:41.513Z,15.32
2018-05-11T07:38:41.446Z,15.38
2018-05-11T07:39:41.442Z,15.38
2018-05-11T07:40:41.422Z,15.45
2018-05-11T07:41:41.412Z,15.50
2018-05-11T07:42:41.393Z,15.60
2018-05-11T07:43:41.381Z,15.47
2018-05-11T07:44:41.351Z,15.38
2018-05-11T07:45:41.356Z,15.27
2018-05-11T07:46:41.315Z,15.20
2018-05-11T07:47:41.325Z,15.08
2018-05-11T07:48:41.318Z,15.10
2018-05-11T07:49:41.286Z,15.10
2018-05-11T07:50:41.285Z,15.22
2018-05-11T07:51:41.317Z,15.23
2018-05-11T07:52:41.266Z,15.22
2018-05-11T07:53:41.213Z,15.33
2018-05-11T07:54:41.297Z,15.47
2018-05-11T07:55:41.187Z,15.52
2018-05-11T07:56:41.160Z,15.65
2018-05-11T07:57:41.147Z,15.60
2018-05-11T07:58:41.190Z,15.60
2018-05-11T07:59:41.138Z,15.60
2018-05-11T08:00:41.124Z,15.62
2018-05-11T08:01:41.122Z,15.60
2018-05-11T08:02:41.124Z,15.50
2018-05-11T08:03:41.055Z,15.44
2018-05-11T08:04:41.045Z,15.51
2018-05-11T08:05:41.037Z,15.58
2018-05-11T08:06:41.038Z,15.68
2018-05-11T08:07:40.990Z,15.83
2018-05-11T08:08:40.982Z,15.90
2018-05-11T08:09:40.997Z,15.96
2018-05-11T08:10:40.943Z,16.08
2018-05-11T08:11:40.975Z,16.21
2018-05-11T08:12:40.929Z,16.18
2018-05-11T08:13:40.943Z,16.10
2018-05-11T08:14:40.889Z,16.25
2018-05-11T08:15:40.877Z,16.25
2018-05-11T08:16:40.863Z,16.21
2018-05-11T08:17:40.840Z,16.29
2018-05-11T08:18:40.910Z,16.32
2018-05-11T08:19:40.823Z,16.49
2018-05-11T08:20:40.814Z,16.57
2018-05-11T08:21:40.789Z,16.65
2018-05-11T08:22:40.765Z,16.62
2018-05-11T08:23:40.761Z,16.70
2018-05-11T08:24:40.751Z,16.58
2018-05-11T08:25:40.733Z,16.55
2018-05-11T08:26:40.788Z,16.47
2018-05-11T08:27:40.714Z,16.40
2018-05-11T08:28:40.679Z,16.26
2018-05-11T08:29:40.684Z,16.21
2018-05-11T08:30:40.663Z,16.25
2018-05-11T08:31:40.639Z,16.29
2018-05-11T08:32:40.621Z,16.29
2018-05-11T08:33:40.641Z,16.21
2018-05-11T08:34:40.610Z,16.10
2018-05-11T08:35:40.586Z,16.08
2018-05-11T08:36:40.563Z,16.28
2018-05-11T08:37:40.557Z,16.40
2018-05-11T08:38:40.544Z,16.49
2018-05-11T08:39:40.509Z,16.52
2018-05-11T08:40:40.512Z,16.65
2018-05-11T08:41:40.480Z,16.54
2018-05-11T08:42:40.461Z,16.54
2018-05-11T08:43:40.477Z,16.54
2018-05-11T08:44:40.459Z,16.64
2018-05-11T08:45:40.468Z,16.59
2018-05-11T08:46:40.403Z,16.65
2018-05-11T08:47:40.406Z,16.64
2018-05-11T08:48:40.385Z,16.65
2018-05-11T08:49:40.359Z,16.58
2018-05-11T08:50:40.374Z,16.72
2018-05-11T08:51:40.344Z,16.82
2018-05-11T08:52:40.315Z,16.80
2018-05-11T08:53:40.309Z,16.65
2018-05-11T08:54:40.293Z,16.74
2018-05-11T08:55:40.278Z,16.84
2018-05-11T08:56:40.256Z,16.64
2018-05-11T08:57:40.267Z,16.88
2018-05-11T08:58:40.269Z,16.90
2018-05-11T08:59:40.244Z,16.69
2018-05-11T09:00:40.234Z,16.65
2018-05-11T09:01:40.222Z,16.76
2018-05-11T09:02:40.192Z,16.88
2018-05-11T09:03:40.172Z,17.02
2018-05-11T09:04:40.164Z,16.80
2018-05-11T09:05:40.161Z,16.69
2018-05-11T09:06:40.158Z,16.70
2018-05-11T09:07:40.118Z,16.77
2018-05-11T09:08:40.190Z,16.62
2018-05-11T09:09:40.083Z,16.67
2018-05-11T09:10:40.111Z,16.77
2018-05-11T09:11:40.048Z,16.98
2018-05-11T09:12:40.042Z,17.16
2018-05-11T09:13:40.045Z,17.12
2018-05-11T09:14:40.026Z,17.16
2018-05-11T09:15:40.009Z,17.12
2018-05-11T09:16:39.990Z,17.14
2018-05-11T09:17:39.973Z,17.16
2018-05-11T09:18:39.955Z,17.16
2018-05-11T09:19:39.933Z,17.20
2018-05-11T09:20:39.925Z,17.30
2018-05-11T09:21:39.906Z,17.34
2018-05-11T09:22:39.894Z,17.50
2018-05-11T09:23:39.879Z,17.63
2018-05-11T09:24:39.887Z,17.72
2018-05-11T09:25:39.849Z,17.59
2018-05-11T09:26:39.839Z,17.41
2018-05-11T09:27:39.821Z,17.37
2018-05-11T09:28:39.817Z,17.28
2018-05-11T09:29:39.833Z,17.35
2018-05-11T09:30:39.784Z,17.46
2018-05-11T09:31:39.819Z,17.45
2018-05-11T09:32:39.844Z,17.25
2018-05-11T09:33:39.777Z,17.09
2018-05-11T09:34:39.734Z,17.17
2018-05-11T09:35:39.709Z,17.38
2018-05-11T09:36:39.722Z,17.57
2018-05-11T09:37:39.711Z,17.75
2018-05-11T09:38:39.691Z,17.81
2018-05-11T09:39:39.705Z,17.88
2018-05-11T09:40:39.684Z,17.84
2018-05-11T09:41:39.640Z,18.05
2018-05-11T09:42:39.625Z,18.03
2018-05-11T09:43:39.629Z,18.23
2018-05-11T09:44:39.605Z,18.30
2018-05-11T09:45:39.584Z,18.36
2018-05-11T09:46:39.559Z,18.45
2018-05-11T09:47:39.547Z,18.56
2018-05-11T09:48:39.578Z,18.63
2018-05-11T09:49:39.551Z,18.68
2018-05-11T09:50:39.540Z,18.61
2018-05-11T09:51:39.491Z,18.52
2018-05-11T09:52:39.492Z,18.56
2018-05-11T09:53:39.471Z,18.58
2018-05-11T09:54:39.467Z,18.48
2018-05-11T09:55:39.457Z,18.45
2018-05-11T09:56:39.433Z,18.34
2018-05-11T09:57:39.421Z,18.38
2018-05-11T09:58:39.409Z,18.41
2018-05-11T09:59:39.390Z,18.49
2018-05-11T10:00:39.435Z,18.42
2018-05-11T10:01:39.479Z,18.24
2018-05-11T10:02:39.377Z,18.27
2018-05-11T10:03:39.346Z,18.20
2018-05-11T10:04:39.322Z,18.18
2018-05-11T10:05:39.312Z,18.12
2018-05-11T10:06:39.296Z,18.05
2018-05-11T10:07:39.283Z,18.09
2018-05-11T10:08:39.268Z,18.12
2018-05-11T10:09:39.251Z,18.13
2018-05-11T10:10:39.257Z,18.28
2018-05-11T10:11:39.228Z,18.39
2018-05-11T10:12:39.224Z,18.54
2018-05-11T10:13:39.234Z,18.60
2018-05-11T10:14:39.209Z,18.74
2018-05-11T10:15:39.176Z,18.82
2018-05-11T10:16:39.170Z,18.89
2018-05-11T10:17:39.169Z,18.86
2018-05-11T10:18:39.136Z,18.82
2018-05-11T10:19:39.150Z,18.86
2018-05-11T10:20:39.160Z,18.76
2018-05-11T10:21:39.128Z,18.63
2018-05-11T10:22:39.086Z,18.41
2018-05-11T10:23:39.082Z,18.41
2018-05-11T10:24:39.116Z,18.49
2018-05-11T10:25:39.055Z,18.52
2018-05-11T10:26:39.040Z,18.61
2018-05-11T10:27:39.012Z,18.68
2018-05-11T10:28:39.017Z,18.86
2018-05-11T10:29:38.987Z,19.04
2018-05-11T10:30:39.005Z,19.23
2018-05-11T10:31:38.966Z,19.31
2018-05-11T10:32:38.976Z,19.47
2018-05-11T10:33:38.967Z,19.52
2018-05-11T10:34:38.922Z,19.53
2018-05-11T10:35:38.955Z,19.56
2018-05-11T10:36:38.914Z,19.54
2018-05-11T10:37:38.887Z,19.53
2018-05-11T10:38:38.899Z,19.44
2018-05-11T10:39:38.872Z,19.47
2018-05-11T10:40:38.853Z,19.39
2018-05-11T10:41:38.837Z,19.34
2018-05-11T10:42:38.817Z,19.34
2018-05-11T10:43:38.808Z,19.34
2018-05-11T10:44:38.886Z,19.37
2018-05-11T10:45:38.791Z,19.16
2018-05-11T10:46:38.785Z,19.15
2018-05-11T10:47:38.764Z,19.27
2018-05-11T10:48:38.819Z,19.45
2018-05-11T10:49:38.730Z,19.45
2018-05-11T10:50:38.741Z,19.01
2018-05-11T10:51:38.723Z,18.88
2018-05-11T10:52:38.746Z,18.91
2018-05-11T10:53:38.682Z,19.17
2018-05-11T10:54:38.683Z,19.30
2018-05-11T10:55:38.677Z,19.59
2018-05-11T10:56:38.693Z,19.68
2018-05-11T10:57:38.636Z,19.89
2018-05-11T10:58:38.627Z,20.00
2018-05-11T10:59:38.613Z,20.12
2018-05-11T11:00:38.597Z,20.29
2018-05-11T11:01:38.599Z,20.60
2018-05-11T11:02:38.588Z,20.64
2018-05-11T11:03:38.580Z,20.71
2018-05-11T11:04:38.689Z,20.88
2018-05-11T11:05:38.550Z,20.80
2018-05-11T11:06:38.541Z,20.73
2018-05-11T11:07:38.509Z,20.77
2018-05-11T11:08:38.527Z,20.85
2018-05-11T11:09:38.494Z,20.86
2018-05-11T11:10:38.504Z,20.73
2018-05-11T11:11:38.486Z,20.68
2018-05-11T11:12:38.456Z,20.63
2018-05-11T11:13:38.535Z,20.71
2018-05-11T11:14:38.429Z,20.64
2018-05-11T11:15:38.436Z,20.64
2018-05-11T11:16:38.431Z,20.82
2018-05-11T11:17:38.440Z,20.89
2018-05-11T11:18:38.413Z,20.92
2018-05-11T11:19:38.410Z,21.04
2018-05-11T11:20:38.369Z,20.85
2018-05-11T11:21:38.395Z,20.92
2018-05-11T11:22:38.372Z,20.86
2018-05-11T11:23:38.348Z,20.89
2018-05-11T11:24:38.339Z,20.93
2018-05-11T11:25:38.311Z,21.01
2018-05-11T11:26:38.346Z,21.10
2018-05-11T11:27:38.394Z,21.19
2018-05-11T11:28:38.286Z,21.20
2018-05-11T11:29:38.291Z,21.37
2018-05-11T11:30:38.255Z,21.40
2018-05-11T11:31:38.253Z,21.44
2018-05-11T11:32:38.258Z,21.45
2018-05-11T11:33:38.259Z,21.59
2018-05-11T11:34:38.300Z,21.69
2018-05-11T11:35:38.213Z,21.71
2018-05-11T11:36:38.243Z,21.62
2018-05-11T11:37:38.185Z,21.53
2018-05-11T11:38:38.207Z,21.47
2018-05-11T11:39:38.170Z,21.22
2018-05-11T11:40:38.153Z,20.97
2018-05-11T11:41:38.165Z,20.88
2018-05-11T11:42:38.148Z,20.88
2018-05-11T11:43:38.123Z,20.97
2018-05-11T11:44:38.116Z,21.07
2018-05-11T11:45:38.099Z,21.18
2018-05-11T11:46:38.098Z,21.28
2018-05-11T11:47:38.184Z,21.41
2018-05-11T11:48:38.112Z,21.59
2018-05-11T11:49:38.064Z,21.67
2018-05-11T11:50:38.081Z,21.88
2018-05-11T11:51:38.058Z,21.82
2018-05-11T11:52:38.041Z,21.93
2018-05-11T11:53:38.028Z,22.01
2018-05-11T11:54:38.027Z,21.90
2018-05-11T11:55:38.026Z,21.60
2018-05-11T11:56:37.985Z,21.58
2018-05-11T11:57:37.982Z,21.59
2018-05-11T11:58:37.973Z,21.59
2018-05-11T11:59:37.985Z,21.59
2018-05-11T12:00:37.946Z,21.48
2018-05-11T12:01:38.004Z,21.43
2018-05-11T12:02:37.925Z,21.34
2018-05-11T12:03:37.922Z,21.26
2018-05-11T12:04:38.006Z,21.14
2018-05-11T12:05:37.905Z,21.16
2018-05-11T12:06:37.884Z,21.07
2018-05-11T12:07:37.881Z,21.08
2018-05-11T12:08:37.878Z,21.20
2018-05-11T12:09:37.860Z,21.16
2018-05-11T12:10:37.846Z,21.26
2018-05-11T12:11:37.834Z,21.41
2018-05-11T12:12:37.922Z,21.44
2018-05-11T12:13:37.838Z,21.37
2018-05-11T12:14:37.825Z,21.43
2018-05-11T12:15:37.802Z,21.60
2018-05-11T12:16:37.795Z,21.65
2018-05-11T12:17:37.775Z,21.80
2018-05-11T12:18:37.768Z,21.74
2018-05-11T12:19:37.765Z,21.90
2018-05-11T12:20:37.747Z,22.04
2018-05-11T12:21:37.744Z,22.04
2018-05-11T12:22:37.728Z,22.16
2018-05-11T12:23:37.722Z,22.33
2018-05-11T12:24:37.738Z,22.33
2018-05-11T12:25:37.705Z,22.27
2018-05-11T12:26:37.714Z,22.22
2018-05-11T12:27:37.691Z,22.11
2018-05-11T12:28:37.674Z,22.03
2018-05-11T12:29:37.669Z,21.94
2018-05-11T12:30:37.661Z,22.03
2018-05-11T12:31:37.655Z,22.07
2018-05-11T12:32:37.645Z,22.13
2018-05-11T12:33:37.629Z,21.98
2018-05-11T12:34:37.616Z,21.98
2018-05-11T12:35:37.613Z,21.94
2018-05-11T12:36:37.615Z,22.01
2018-05-11T12:37:37.607Z,22.07
2018-05-11T12:38:37.578Z,22.09
2018-05-11T12:39:37.568Z,22.01
2018-05-11T12:40:37.557Z,22.06
2018-05-11T12:41:37.544Z,22.19
2018-05-11T12:42:37.571Z,22.49
2018-05-11T12:43:37.535Z,22.86
2018-05-11T12:44:37.539Z,22.92
2018-05-11T12:45:37.517Z,23.22
2018-05-11T12:46:37.519Z,23.36
2018-05-11T12:47:37.520Z,23.34
2018-05-11T12:48:37.485Z,23.25
2018-05-11T12:49:37.480Z,23.04
2018-05-11T12:50:37.492Z,22.51
2018-05-11T12:51:37.475Z,22.18
2018-05-11T12:52:37.485Z,22.36
2018-05-11T12:53:37.447Z,22.25
2018-05-11T12:54:37.427Z,22.37
2018-05-11T12:55:37.436Z,22.33
2018-05-11T12:56:37.426Z,22.81
2018-05-11T12:57:37.429Z,22.99
2018-05-11T12:58:37.410Z,23.18
2018-05-11T12:59:37.413Z,23.10
2018-05-11T13:00:37.391Z,23.29